TimeEDT,TemperatureF,Dew PointF,Humidity,Sea Level PressureIn,VisibilityMPH,Wind Direction,Wind SpeedMPH,Gust SpeedMPH,PrecipitationIn,Events,Conditions,WindDirDegrees,DateUTC
12:53 AM,57.0,48.9,74,29.85,10.0,NNE,3.5,-,0.00,Rain,Light Rain,30,2012-10-02 04:53:00
1:53 AM,57.0,50.0,77,29.83,8.0,NE,5.8,-,0.00,Rain,Light Rain,40,2012-10-02 05:53:00
2:53 AM,55.9,51.1,84,29.84,10.0,North,3.5,-,0.01,,Overcast,10,2012-10-02 06:53:00
3:53 AM,57.0,51.1,81,29.82,10.0,NNE,4.6,-,N/A,,Overcast,20,2012-10-02 07:53:00
4:53 AM,57.0,52.0,83,29.82,10.0,North,5.8,-,0.00,Rain,Light Rain,10,2012-10-02 08:53:00
5:53 AM,55.9,53.1,90,29.83,8.0,NNE,5.8,-,0.06,Rain,Rain,30,2012-10-02 09:53:00
6:53 AM,55.9,53.1,90,29.85,8.0,NNW,8.1,-,0.03,Rain,Light Rain,340,2012-10-02 10:53:00
7:53 AM,55.0,52.0,89,29.87,7.0,North,6.9,-,0.00,Rain,Light Rain,360,2012-10-02 11:53:00
8:53 AM,55.0,52.0,89,29.88,10.0,NNE,6.9,-,0.00,,Overcast,20,2012-10-02 12:53:00
9:53 AM,57.0,52.0,83,29.87,10.0,North,8.1,-,N/A,,Overcast,360,2012-10-02 13:53:00
10:53 AM,59.0,51.1,75,29.88,10.0,NNE,8.1,-,N/A,,Overcast,30,2012-10-02 14:53:00
11:53 AM,62.1,50.0,65,29.88,10.0,NNE,10.4,-,N/A,,Overcast,30,2012-10-02 15:53:00
12:53 PM,64.9,52.0,63,29.86,10.0,NE,10.4,-,N/A,,Overcast,50,2012-10-02 16:53:00
1:53 PM,68.0,51.1,55,29.86,10.0,ENE,12.7,20.7,N/A,,Mostly Cloudy,70,2012-10-02 17:53:00
2:53 PM,69.1,51.1,53,29.84,10.0,ENE,10.4,-,N/A,,Scattered Clouds,60,2012-10-02 18:53:00
3:53 PM,69.1,52.0,54,29.85,10.0,ENE,9.2,-,N/A,,Mostly Cloudy,70,2012-10-02 19:53:00
4:53 PM,69.1,52.0,54,29.85,10.0,NE,9.2,-,N/A,,Mostly Cloudy,50,2012-10-02 20:53:00
6:53 PM,66.9,53.1,61,29.86,10.0,ENE,5.8,-,N/A,,Scattered Clouds,60,2012-10-02 22:53:00
7:53 PM,66.0,53.1,63,29.88,10.0,ENE,5.8,-,N/A,,Mostly Cloudy,70,2012-10-02 23:53:00
8:53 PM,64.9,52.0,63,29.91,10.0,NE,4.6,-,N/A,,Overcast,50,2012-10-03 00:53:00
9:53 PM,64.0,51.1,63,29.91,10.0,NNE,4.6,-,0.00,,Overcast,30,2012-10-03 01:53:00
10:53 PM,63.0,52.0,67,29.93,8.0,NNE,3.5,-,0.00,Rain,Rain,30,2012-10-03 02:53:00
11:13 PM,60.8,53.6,77,29.93,6.0,WNW,4.6,-,0.03,Rain,Light Rain,290,2012-10-03 03:13:00
11:36 PM,59.0,53.6,82,29.92,10.0,NNW,8.1,-,0.03,,Overcast,340,2012-10-03 03:36:00
11:53 PM,59.0,54.0,83,29.92,10.0,NNW,3.5,-,0.03,,Overcast,340,2012-10-03 03:53:00